Time;durP1;ratioP1;P1;durP2;ratioP2;P2;SDS_P1;SDS_P2;PMS_P1;PMS_P2;Temp;Humidity;BMP_temperature;BMP_pressure;BME280_temperature;BME280_humidity;BME280_pressure;Samples;Min_cycle;Max_cycle;Signal;HPM_P1;HPM_P2
2023/03/19 00:01:59;;;;;;;5.18;2.47;;;13.70;99.90;;;;;;7386637;19;20154;-77
2023/03/19 00:04:26;;;;;;;6.32;3.17;;;13.80;99.90;;;;;;7384666;19;20186;-78
2023/03/19 00:06:53;;;;;;;4.82;2.92;;;13.90;99.90;;;;;;7395101;19;20198;-78
2023/03/19 00:09:20;;;;;;;5.68;3.20;;;13.80;99.90;;;;;;7396624;19;20138;-77
2023/03/19 00:11:47;;;;;;;7.03;3.40;;;13.90;99.90;;;;;;7395572;19;20226;-77
2023/03/19 00:14:13;;;;;;;7.20;3.58;;;13.80;99.90;;;;;;7391123;19;20508;-78
2023/03/19 00:16:39;;;;;;;7.30;3.35;;;13.90;99.90;;;;;;7395510;19;20146;-77
2023/03/19 00:19:05;;;;;;;8.77;3.83;;;13.90;99.90;;;;;;7394000;19;20160;-76
2023/03/19 00:21:31;;;;;;;6.80;3.30;;;13.90;99.90;;;;;;7396165;19;20150;-77
2023/03/19 00:24:01;;;;;;;4.43;3.15;;;13.80;99.90;;;;;;7391026;19;20197;-77
2023/03/19 00:26:28;;;;;;;4.63;2.80;;;13.80;99.90;;;;;;7393911;19;20158;-77
2023/03/19 00:28:55;;;;;;;5.30;2.63;;;13.90;99.90;;;;;;7391439;19;20138;-77
2023/03/19 00:31:22;;;;;;;7.25;3.28;;;13.80;99.90;;;;;;7393473;19;20153;-76
2023/03/19 00:33:48;;;;;;;5.70;3.45;;;13.70;99.90;;;;;;7392157;19;20230;-78
2023/03/19 00:36:15;;;;;;;6.13;2.80;;;13.70;99.90;;;;;;7394675;19;20722;-77
2023/03/19 00:38:42;;;;;;;5.13;3.40;;;13.60;99.90;;;;;;7391333;19;20162;-77
2023/03/19 00:41:08;;;;;;;7.07;3.85;;;13.70;99.90;;;;;;7393241;19;20156;-77
2023/03/19 00:43:34;;;;;;;6.60;3.67;;;13.70;99.90;;;;;;7391796;19;20612;-78
2023/03/19 00:46:00;;;;;;;6.78;3.70;;;13.70;99.90;;;;;;7393615;19;20174;-77
2023/03/19 00:48:26;;;;;;;6.50;3.70;;;13.50;99.90;;;;;;7391327;19;20142;-78
2023/03/19 00:51:00;;;;;;;6.55;3.50;;;13.00;99.90;;;;;;7395931;19;20529;-77
2023/03/19 00:53:29;;;;;;;5.10;3.38;;;13.20;99.90;;;;;;7391769;19;20182;-80
2023/03/19 00:55:55;;;;;;;6.93;3.17;;;13.30;99.90;;;;;;7391644;19;20622;-78
2023/03/19 00:58:21;;;;;;;4.32;3.15;;;13.30;99.90;;;;;;7393080;19;20139;-78
2023/03/19 01:00:47;;;;;;;7.00;3.70;;;13.50;99.90;;;;;;7391901;19;20148;-76
2023/03/19 01:03:13;;;;;;;9.07;4.13;;;13.70;99.90;;;;;;7393118;19;20146;-77
2023/03/19 01:05:39;;;;;;;6.88;4.10;;;13.40;99.90;;;;;;7394858;19;20169;-77
2023/03/19 01:08:05;;;;;;;10.07;4.20;;;13.50;99.90;;;;;;7392393;19;20170;-79
2023/03/19 01:10:32;;;;;;;6.78;3.63;;;13.50;99.90;;;;;;7391636;19;20627;-78
2023/03/19 01:12:58;;;;;;;7.25;3.92;;;13.50;99.90;;;;;;7390194;19;20158;-78
2023/03/19 01:15:24;;;;;;;7.35;4.55;;;13.60;99.90;;;;;;7391856;19;20263;-78
2023/03/19 01:17:50;;;;;;;8.93;4.13;;;13.60;99.90;;;;;;7392150;19;20150;-77
2023/03/19 01:20:17;;;;;;;12.05;4.72;;;13.70;99.90;;;;;;7392552;19;20145;-78
2023/03/19 01:22:44;;;;;;;13.07;4.78;;;13.60;99.90;;;;;;7390177;19;20134;-78
2023/03/19 01:25:12;;;;;;;10.77;5.05;;;13.60;99.90;;;;;;7394125;19;20134;-76
2023/03/19 01:27:39;;;;;;;11.80;3.92;;;13.60;99.90;;;;;;7391149;19;20135;-78
2023/03/19 01:30:06;;;;;;;6.22;4.15;;;13.60;99.90;;;;;;7393760;19;20286;-78
2023/03/19 01:32:32;;;;;;;7.50;4.22;;;13.60;99.90;;;;;;7389603;19;20169;-78
2023/03/19 01:34:59;;;;;;;5.40;3.28;;;13.50;99.90;;;;;;7393148;19;20501;-78
2023/03/19 01:37:25;;;;;;;7.03;3.25;;;13.50;99.90;;;;;;7390716;19;20142;-77
2023/03/19 01:39:51;;;;;;;5.25;2.78;;;13.50;99.90;;;;;;7386247;19;20138;-77
2023/03/19 01:42:16;;;;;;;4.15;2.40;;;13.30;99.90;;;;;;7390505;19;20594;-76
2023/03/19 01:44:43;;;;;;;3.78;2.33;;;13.20;99.90;;;;;;7391023;19;20242;-76
2023/03/19 01:47:33;;;;;;;4.57;2.53;;;13.20;99.90;;;;;;7390583;19;20560;-77
2023/03/19 01:49:58;;;;;;;4.88;2.47;;;13.20;99.90;;;;;;7392034;19;20755;-78
2023/03/19 01:52:27;;;;;;;3.20;2.08;;;13.40;99.90;;;;;;7389822;19;20147;-78
2023/03/19 01:54:55;;;;;;;3.50;2.17;;;13.50;99.90;;;;;;7387201;19;20130;-78
2023/03/19 01:57:22;;;;;;;4.10;2.13;;;13.30;99.90;;;;;;7391782;19;20138;-77
2023/03/19 01:59:53;;;;;;;4.03;2.17;;;13.10;99.90;;;;;;7392960;19;20140;-78
2023/03/19 02:02:31;;;;;;;2.33;1.70;;;13.20;99.90;;;;;;7390095;19;20157;-76
2023/03/19 02:05:11;;;;;;;4.30;1.73;;;13.30;99.90;;;;;;7389716;19;20459;-78
2023/03/19 02:07:39;;;;;;;4.03;2.22;;;13.30;99.90;;;;;;7391812;19;20143;-77
2023/03/19 02:10:12;;;;;;;3.10;1.75;;;13.30;99.90;;;;;;7389599;19;20155;-77
2023/03/19 02:12:38;;;;;;;4.00;1.42;;;13.40;99.90;;;;;;7388858;19;20143;-77
2023/03/19 02:15:04;;;;;;;4.18;1.80;;;13.50;99.90;;;;;;7390075;19;20138;-76
2023/03/19 02:17:33;;;;;;;4.10;1.90;;;13.50;99.90;;;;;;7389692;19;20158;-77
2023/03/19 02:20:21;;;;;;;2.25;1.45;;;13.60;99.90;;;;;;7389040;19;20157;-77
2023/03/19 02:23:15;;;;;;;3.05;2.05;;;13.70;99.90;;;;;;7390298;19;20595;-77
2023/03/19 02:25:47;;;;;;;4.13;1.73;;;13.80;99.90;;;;;;7389786;19;20142;-76
2023/03/19 02:28:17;;;;;;;2.78;2.13;;;13.70;99.90;;;;;;7387424;19;20502;-77
2023/03/19 02:30:44;;;;;;;2.60;1.33;;;13.80;99.90;;;;;;7390583;19;20261;-77
2023/03/19 02:33:16;;;;;;;2.85;1.77;;;13.60;99.90;;;;;;7387331;19;20160;-76
2023/03/19 02:35:45;;;;;;;2.35;1.67;;;13.60;99.90;;;;;;7390799;19;20757;-77
2023/03/19 02:38:12;;;;;;;2.88;1.55;;;13.50;99.90;;;;;;7386310;19;20506;-77
2023/03/19 02:40:44;;;;;;;5.82;1.52;;;13.50;99.90;;;;;;7387728;19;20139;-76
2023/03/19 02:43:10;;;;;;;2.05;1.50;;;13.40;99.90;;;;;;7387083;19;20138;-77
2023/03/19 02:45:35;;;;;;;2.88;1.75;;;13.50;99.90;;;;;;7392197;19;20639;-76
2023/03/19 02:48:01;;;;;;;2.10;1.70;;;13.50;99.90;;;;;;7390108;19;20134;-77
2023/03/19 02:50:27;;;;;;;2.38;1.60;;;13.50;99.90;;;;;;7390839;19;20138;-76
2023/03/19 02:52:53;;;;;;;1.90;1.73;;;13.60;99.90;;;;;;7387615;19;20162;-77
2023/03/19 02:55:20;;;;;;;3.03;1.70;;;13.60;99.90;;;;;;7389394;19;20486;-76
2023/03/19 02:57:46;;;;;;;2.05;1.70;;;13.50;99.90;;;;;;7391365;19;20130;-77
2023/03/19 03:00:12;;;;;;;3.42;1.90;;;13.50;99.90;;;;;;7390797;19;20139;-76
2023/03/19 03:02:38;;;;;;;1.88;1.60;;;13.50;99.90;;;;;;7389241;19;20138;-75
2023/03/19 03:05:05;;;;;;;3.17;2.05;;;13.50;99.90;;;;;;7387185;19;20154;-75
2023/03/19 03:07:31;;;;;;;3.28;1.50;;;13.50;99.90;;;;;;7391304;19;20505;-77
2023/03/19 03:09:57;;;;;;;2.63;1.75;;;13.50;99.90;;;;;;7387267;19;20158;-77
2023/03/19 03:12:24;;;;;;;5.32;2.15;;;13.40;99.90;;;;;;7390186;19;20162;-77
2023/03/19 03:14:50;;;;;;;3.58;1.98;;;13.30;99.90;;;;;;7389688;19;20190;-76
2023/03/19 03:17:16;;;;;;;4.85;2.35;;;13.00;99.90;;;;;;7390687;19;20135;-77
2023/03/19 03:19:41;;;;;;;3.42;1.85;;;13.10;99.90;;;;;;7390848;19;20578;-76
2023/03/19 03:22:07;;;;;;;3.08;2.00;;;13.10;99.90;;;;;;7387794;19;20142;-76
2023/03/19 03:24:33;;;;;;;3.30;1.88;;;13.10;99.90;;;;;;7388648;19;20143;-77
2023/03/19 03:26:59;;;;;;;3.13;1.98;;;12.90;99.90;;;;;;7388176;19;20153;-77
2023/03/19 03:29:25;;;;;;;3.78;2.20;;;12.70;99.90;;;;;;7387909;19;20510;-76
2023/03/19 03:31:51;;;;;;;3.35;2.22;;;12.90;99.90;;;;;;7389173;19;20143;-76
2023/03/19 03:34:17;;;;;;;2.70;2.22;;;13.00;99.90;;;;;;7381834;19;20515;-77
2023/03/19 03:36:45;;;;;;;3.03;2.00;;;13.10;99.90;;;;;;7387444;19;20138;-76
2023/03/19 03:39:12;;;;;;;3.80;1.95;;;13.30;99.90;;;;;;7389801;19;20142;-76
2023/03/19 03:41:38;;;;;;;2.38;2.00;;;13.20;99.90;;;;;;7393547;19;20151;-77
2023/03/19 03:44:04;;;;;;;2.65;2.05;;;12.90;99.90;;;;;;7394906;19;20477;-77
2023/03/19 03:46:30;;;;;;;2.90;2.00;;;12.90;99.90;;;;;;7395437;19;20153;-77
2023/03/19 03:48:56;;;;;;;2.75;1.70;;;12.30;99.90;;;;;;7396542;19;20511;-76
2023/03/19 03:51:22;;;;;;;2.95;1.90;;;12.60;99.90;;;;;;7393808;19;20618;-76
2023/03/19 03:53:47;;;;;;;2.80;1.88;;;12.80;99.90;;;;;;7394904;19;20174;-77
2023/03/19 03:56:13;;;;;;;2.90;2.00;;;13.00;99.90;;;;;;7396848;19;20151;-77
2023/03/19 03:58:39;;;;;;;3.65;2.33;;;12.80;99.90;;;;;;7395815;19;20150;-78
2023/03/19 04:01:06;;;;;;;2.70;1.90;;;12.50;99.90;;;;;;7393793;19;20135;-75
2023/03/19 04:03:32;;;;;;;2.50;2.00;;;12.60;99.90;;;;;;7393789;19;20155;-77
2023/03/19 04:05:58;;;;;;;5.00;2.10;;;12.80;99.90;;;;;;7393427;19;20131;-76
2023/03/19 04:08:25;;;;;;;2.13;1.92;;;12.80;99.90;;;;;;7395330;19;20148;-76
2023/03/19 04:10:50;;;;;;;2.45;2.00;;;12.90;99.90;;;;;;7392719;19;20599;-75
2023/03/19 04:13:16;;;;;;;2.28;2.05;;;12.80;99.90;;;;;;7394088;19;20142;-77
2023/03/19 04:15:43;;;;;;;2.80;2.17;;;12.60;99.90;;;;;;7393873;19;20205;-76
2023/03/19 04:18:09;;;;;;;4.65;2.00;;;12.60;99.90;;;;;;7395602;19;20667;-76
2023/03/19 04:20:35;;;;;;;3.10;2.05;;;12.50;99.90;;;;;;7394656;19;20135;-77
2023/03/19 04:23:01;;;;;;;4.70;2.30;;;12.40;99.90;;;;;;7393129;19;20640;-76
2023/03/19 04:25:27;;;;;;;3.08;2.00;;;12.40;99.90;;;;;;7394736;19;20210;-76
2023/03/19 04:27:56;;;;;;;2.58;2.20;;;12.50;99.90;;;;;;7395763;19;20135;-77
2023/03/19 04:30:22;;;;;;;3.30;2.30;;;12.40;99.90;;;;;;7394462;19;20138;-77
2023/03/19 04:32:47;;;;;;;3.08;2.03;;;12.60;99.90;;;;;;7391365;19;20156;-75
2023/03/19 04:35:13;;;;;;;4.13;2.33;;;12.70;99.90;;;;;;7396319;19;20139;-76
2023/03/19 04:37:39;;;;;;;4.00;2.38;;;12.80;99.90;;;;;;7392774;19;20138;-76
2023/03/19 04:40:06;;;;;;;3.15;2.58;;;13.00;99.90;;;;;;7392976;19;20153;-76
2023/03/19 04:42:31;;;;;;;3.70;2.53;;;12.80;99.90;;;;;;7393813;19;20269;-76
2023/03/19 04:44:57;;;;;;;4.55;2.55;;;12.60;99.90;;;;;;7393756;19;20303;-76
2023/03/19 04:47:23;;;;;;;3.92;2.55;;;12.40;99.90;;;;;;7392580;19;20228;-76
2023/03/19 04:49:49;;;;;;;4.35;2.33;;;12.20;99.90;;;;;;7392058;19;20134;-78
2023/03/19 04:52:14;;;;;;;2.85;1.80;;;12.20;99.90;;;;;;7389562;19;20202;-76
2023/03/19 04:54:40;;;;;;;2.83;2.13;;;12.50;99.90;;;;;;7394434;19;20138;-77
2023/03/19 04:57:06;;;;;;;2.20;1.98;;;12.80;99.90;;;;;;7393208;19;20151;-76
2023/03/19 04:59:32;;;;;;;5.50;2.47;;;12.90;99.90;;;;;;7392563;19;20147;-76
2023/03/19 05:01:58;;;;;;;3.63;2.70;;;13.00;99.90;;;;;;7391898;19;20197;-76
2023/03/19 05:04:23;;;;;;;4.18;2.72;;;13.00;99.90;;;;;;7390690;19;20166;-76
2023/03/19 05:06:50;;;;;;;4.47;2.88;;;12.90;99.90;;;;;;7390290;19;20151;-77
2023/03/19 05:09:15;;;;;;;4.95;3.28;;;12.90;99.90;;;;;;7392410;19;20871;-76
2023/03/19 05:11:42;;;;;;;5.35;2.80;;;13.00;99.90;;;;;;7391069;19;20167;-76
2023/03/19 05:14:08;;;;;;;4.60;2.80;;;13.00;99.90;;;;;;7389044;19;20487;-76
2023/03/19 05:16:34;;;;;;;7.22;2.50;;;13.00;99.90;;;;;;7393588;19;20162;-76
2023/03/19 05:19:00;;;;;;;5.38;3.25;;;13.00;99.90;;;;;;7390776;19;20142;-76
2023/03/19 05:21:26;;;;;;;4.28;2.85;;;13.10;99.90;;;;;;7394053;19;20142;-76
2023/03/19 05:23:53;;;;;;;4.43;2.83;;;13.10;99.90;;;;;;7390103;19;20139;-76
2023/03/19 05:26:20;;;;;;;8.02;2.92;;;12.50;99.90;;;;;;7393325;19;20247;-76
2023/03/19 05:28:46;;;;;;;4.07;2.40;;;12.40;99.90;;;;;;7394345;19;20143;-77
2023/03/19 05:31:11;;;;;;;3.58;2.55;;;12.40;99.90;;;;;;7390728;19;20153;-76
2023/03/19 05:33:37;;;;;;;4.00;2.20;;;12.60;99.90;;;;;;7390560;19;20150;-77
2023/03/19 05:36:03;;;;;;;4.22;2.50;;;12.50;99.90;;;;;;7390282;19;20171;-76
2023/03/19 05:38:29;;;;;;;5.22;2.70;;;12.70;99.90;;;;;;7391536;19;20483;-77
2023/03/19 05:40:55;;;;;;;3.95;2.50;;;12.80;99.90;;;;;;7390031;19;20151;-76
2023/03/19 05:43:21;;;;;;;4.22;2.17;;;12.70;99.90;;;;;;7390492;19;20150;-77
2023/03/19 05:45:53;;;;;;;3.03;2.13;;;12.60;99.90;;;;;;7390279;19;20145;-76
2023/03/19 05:48:19;;;;;;;3.15;2.20;;;12.80;99.90;;;;;;7391104;19;20177;-75
2023/03/19 05:50:46;;;;;;;4.30;2.50;;;12.80;99.90;;;;;;7391410;19;20154;-77
2023/03/19 05:53:11;;;;;;;4.03;2.03;;;12.60;99.90;;;;;;7391124;19;20143;-76
2023/03/19 05:55:37;;;;;;;4.72;2.50;;;12.70;99.90;;;;;;7392695;19;20146;-76
2023/03/19 05:58:03;;;;;;;4.97;2.90;;;12.70;99.90;;;;;;7390585;19;20570;-76
2023/03/19 06:00:29;;;;;;;3.65;2.38;;;12.80;99.90;;;;;;7392226;19;20588;-77
2023/03/19 06:02:55;;;;;;;7.30;2.50;;;12.80;99.90;;;;;;7390505;19;20173;-76
2023/03/19 06:05:21;;;;;;;4.38;2.58;;;12.90;99.90;;;;;;7389140;19;20162;-76
2023/03/19 06:07:47;;;;;;;3.42;2.13;;;12.90;99.90;;;;;;7392867;19;20151;-78
2023/03/19 06:10:13;;;;;;;6.38;2.40;;;13.00;99.90;;;;;;7390950;19;20135;-77
2023/03/19 06:12:39;;;;;;;3.15;2.38;;;13.20;99.90;;;;;;7390813;19;20151;-77
2023/03/19 06:15:05;;;;;;;3.28;2.00;;;13.00;99.90;;;;;;7389078;19;20492;-76
2023/03/19 06:17:31;;;;;;;2.83;2.03;;;13.00;99.90;;;;;;7393374;19;20130;-77
2023/03/19 06:19:57;;;;;;;2.67;2.00;;;13.00;99.90;;;;;;7390384;19;20131;-76
2023/03/19 06:22:22;;;;;;;4.95;2.22;;;13.00;99.90;;;;;;7390141;19;20145;-77
2023/03/19 06:24:48;;;;;;;3.03;2.67;;;13.10;99.90;;;;;;7389580;19;20257;-77
2023/03/19 06:27:14;;;;;;;4.78;1.90;;;13.00;99.90;;;;;;7390927;19;20454;-75
2023/03/19 06:29:40;;;;;;;5.32;2.10;;;13.10;99.90;;;;;;7390200;19;20135;-77
2023/03/19 06:32:06;;;;;;;2.88;2.38;;;12.90;99.90;;;;;;7390604;19;20131;-76
2023/03/19 06:34:54;;;;;;;5.32;2.30;;;13.10;99.90;;;;;;7392619;19;20180;-79
2023/03/19 06:37:19;;;;;;;3.13;1.98;;;13.10;99.90;;;;;;7392171;19;20137;-78
2023/03/19 06:39:45;;;;;;;3.97;1.83;;;13.00;99.90;;;;;;7390221;19;20243;-77
2023/03/19 06:42:12;;;;;;;2.97;1.85;;;13.10;99.90;;;;;;7390902;19;20130;-78
2023/03/19 06:44:37;;;;;;;2.75;2.22;;;13.10;99.90;;;;;;7389454;19;20145;-78
2023/03/19 06:47:03;;;;;;;2.28;1.73;;;12.90;99.90;;;;;;7389145;19;20543;-78
2023/03/19 06:49:29;;;;;;;3.13;2.00;;;12.70;99.90;;;;;;7392347;19;20147;-78
2023/03/19 06:51:55;;;;;;;2.53;1.88;;;12.40;99.90;;;;;;7393035;19;20798;-77
2023/03/19 06:54:20;;;;;;;3.25;2.22;;;12.40;99.90;;;;;;7390671;19;20138;-78
2023/03/19 06:56:47;;;;;;;2.83;2.15;;;12.50;99.90;;;;;;7390985;19;20147;-79
2023/03/19 06:59:13;;;;;;;4.00;2.47;;;12.30;99.90;;;;;;7390728;19;20123;-76
2023/03/19 07:01:40;;;;;;;4.03;2.20;;;12.50;99.90;;;;;;7390298;19;20155;-76
2023/03/19 07:04:07;;;;;;;3.40;2.50;;;12.60;99.90;;;;;;7391285;19;20155;-77
2023/03/19 07:06:33;;;;;;;3.88;2.70;;;12.70;99.90;;;;;;7389478;19;20525;-78
2023/03/19 07:08:59;;;;;;;3.65;2.35;;;12.90;99.90;;;;;;7391722;19;20156;-77
2023/03/19 07:11:25;;;;;;;2.47;2.00;;;12.90;99.90;;;;;;7385149;19;20138;-79
2023/03/19 07:13:51;;;;;;;7.15;3.10;;;13.00;99.90;;;;;;7388137;19;20162;-78
2023/03/19 07:16:17;;;;;;;4.97;3.20;;;13.20;99.90;;;;;;7387517;19;20138;-78
2023/03/19 07:18:43;;;;;;;3.35;2.70;;;13.30;99.90;;;;;;7387666;19;20181;-78
2023/03/19 07:21:08;;;;;;;4.45;2.40;;;13.50;99.90;;;;;;7390837;19;20142;-78
2023/03/19 07:23:36;;;;;;;4.40;2.58;;;13.20;99.90;;;;;;7389728;19;20146;-77
2023/03/19 07:26:02;;;;;;;4.97;2.80;;;13.00;99.90;;;;;;7387319;19;20154;-78
2023/03/19 07:28:28;;;;;;;3.88;2.13;;;13.00;99.90;;;;;;7389496;19;20150;-77
2023/03/19 07:30:54;;;;;;;5.95;2.90;;;13.10;99.90;;;;;;7388706;19;20178;-78
2023/03/19 07:33:20;;;;;;;5.03;2.40;;;13.20;99.90;;;;;;7386818;19;20190;-78
2023/03/19 07:35:46;;;;;;;3.20;2.15;;;13.30;99.90;;;;;;7389544;19;20138;-78
2023/03/19 07:38:13;;;;;;;4.65;2.90;;;13.40;99.90;;;;;;7385950;19;20623;-78
2023/03/19 07:40:39;;;;;;;3.03;2.50;;;13.40;99.90;;;;;;7386405;19;20400;-77
2023/03/19 07:43:05;;;;;;;5.30;2.67;;;13.40;99.90;;;;;;7386750;19;20158;-79
2023/03/19 07:45:31;;;;;;;4.10;2.53;;;13.20;99.90;;;;;;7386361;19;20141;-78
2023/03/19 07:47:57;;;;;;;3.35;2.60;;;13.30;99.90;;;;;;7386803;19;20539;-78
2023/03/19 07:50:22;;;;;;;3.33;2.22;;;13.40;99.90;;;;;;7387061;19;21114;-80
2023/03/19 07:52:50;;;;;;;3.88;2.40;;;13.40;99.90;;;;;;7383227;19;20138;-79
2023/03/19 07:55:16;;;;;;;4.32;2.90;;;13.60;99.90;;;;;;7386846;19;20155;-79
2023/03/19 07:57:42;;;;;;;5.78;2.78;;;13.70;99.90;;;;;;7386487;19;20145;-79
2023/03/19 08:00:09;;;;;;;3.05;2.15;;;13.60;99.90;;;;;;7382976;19;20131;-78
2023/03/19 08:02:35;;;;;;;2.65;1.83;;;13.30;99.90;;;;;;7383663;19;20919;-78
2023/03/19 08:05:03;;;;;;;2.90;1.95;;;13.20;99.90;;;;;;7384246;19;20154;-79
2023/03/19 08:07:30;;;;;;;2.95;1.80;;;13.40;99.90;;;;;;7384619;19;20150;-77
2023/03/19 08:09:57;;;;;;;3.95;1.55;;;13.70;99.90;;;;;;7386126;19;20493;-78
2023/03/19 08:12:23;;;;;;;2.90;1.80;;;13.70;99.90;;;;;;7385492;19;20142;-78
2023/03/19 08:14:49;;;;;;;5.40;1.92;;;13.80;99.90;;;;;;7386397;19;20615;-78
2023/03/19 08:17:16;;;;;;;3.47;2.47;;;13.80;99.90;;;;;;7385981;19;20619;-78
2023/03/19 08:19:45;;;;;;;4.00;3.00;;;13.90;99.90;;;;;;7387701;19;20139;-79
2023/03/19 08:22:13;;;;;;;5.03;2.97;;;14.00;99.90;;;;;;7384824;19;20135;-78
2023/03/19 08:24:39;;;;;;;4.55;2.67;;;14.00;99.90;;;;;;7385251;19;20575;-79
2023/03/19 08:27:15;;;;;;;2.92;2.33;;;13.90;99.90;;;;;;7389742;19;20150;-79
2023/03/19 08:29:42;;;;;;;5.22;3.40;;;14.00;99.90;;;;;;7392914;19;20142;-79
2023/03/19 08:32:08;;;;;;;3.85;2.78;;;14.00;99.90;;;;;;7393307;19;20143;-79
2023/03/19 08:34:34;;;;;;;4.68;2.75;;;14.00;99.90;;;;;;7389649;19;20145;-79
2023/03/19 08:37:01;;;;;;;3.42;2.47;;;13.90;99.90;;;;;;7393251;19;20151;-78
2023/03/19 08:39:27;;;;;;;5.05;2.45;;;14.00;99.90;;;;;;7395056;19;20434;-79
2023/03/19 08:41:53;;;;;;;3.20;2.35;;;14.00;99.90;;;;;;7392031;19;20130;-79
2023/03/19 08:44:19;;;;;;;2.72;2.25;;;14.00;99.90;;;;;;7392692;19;20169;-78
2023/03/19 08:46:45;;;;;;;5.68;2.78;;;14.00;99.90;;;;;;7396710;19;20765;-79
2023/03/19 08:49:11;;;;;;;4.22;2.55;;;14.10;99.90;;;;;;7391662;19;20161;-79
2023/03/19 08:51:37;;;;;;;5.38;2.42;;;14.20;99.90;;;;;;7394873;19;20581;-77
2023/03/19 08:54:03;;;;;;;5.07;2.83;;;14.20;99.90;;;;;;7387125;19;20151;-76
2023/03/19 08:56:28;;;;;;;5.15;3.08;;;14.40;99.90;;;;;;7389873;19;20463;-77
2023/03/19 08:58:56;;;;;;;3.08;2.30;;;14.60;99.90;;;;;;7389882;19;20214;-74
2023/03/19 09:01:22;;;;;;;3.38;2.28;;;14.60;99.90;;;;;;7394007;19;20536;-76
2023/03/19 09:03:48;;;;;;;3.90;2.33;;;14.50;99.90;;;;;;7391298;19;20153;-78
2023/03/19 09:06:14;;;;;;;3.28;1.92;;;14.70;99.90;;;;;;7392688;19;20138;-76
2023/03/19 09:08:41;;;;;;;4.82;1.90;;;14.80;99.90;;;;;;7390703;19;20157;-78
2023/03/19 09:11:07;;;;;;;5.43;2.10;;;14.90;99.90;;;;;;7390985;19;20258;-75
2023/03/19 09:13:33;;;;;;;2.70;1.83;;;14.90;99.90;;;;;;7391093;19;20147;-77
2023/03/19 09:16:00;;;;;;;1.92;1.40;;;15.00;99.90;;;;;;7390803;19;20142;-76
2023/03/19 09:18:26;;;;;;;1.70;1.35;;;15.20;99.90;;;;;;7389449;19;20214;-76
2023/03/19 09:20:54;;;;;;;1.48;1.30;;;15.20;99.90;;;;;;7389536;19;20159;-77
2023/03/19 09:23:21;;;;;;;4.97;1.40;;;15.30;99.90;;;;;;7392065;19;20513;-75
2023/03/19 09:25:47;;;;;;;3.63;1.50;;;15.40;99.90;;;;;;7394027;19;20130;-74
2023/03/19 09:28:13;;;;;;;1.40;1.30;;;15.40;99.90;;;;;;7391875;19;20173;-76
2023/03/19 09:30:39;;;;;;;2.75;1.60;;;15.50;99.90;;;;;;7394040;19;20183;-79
2023/03/19 09:33:05;;;;;;;2.72;1.73;;;15.50;99.90;;;;;;7391471;19;20159;-78
2023/03/19 09:35:32;;;;;;;3.05;1.55;;;15.60;99.90;;;;;;7392875;19;20138;-77
2023/03/19 09:37:59;;;;;;;4.35;2.08;;;15.80;99.90;;;;;;7389983;19;20158;-75
2023/03/19 09:40:38;;;;;;;4.10;1.30;;;15.90;99.90;;;;;;7388856;19;20154;-76
2023/03/19 09:43:07;;;;;;;2.85;1.58;;;16.10;99.90;;;;;;7390917;19;20150;-76
2023/03/19 09:45:34;;;;;;;2.15;1.50;;;16.20;99.90;;;;;;7391102;19;20122;-77
2023/03/19 09:48:06;;;;;;;3.80;1.90;;;16.30;99.90;;;;;;7389212;19;20157;-75
2023/03/19 09:50:33;;;;;;;2.95;1.30;;;16.30;99.90;;;;;;7388590;19;20226;-75
2023/03/19 09:53:15;;;;;;;3.08;1.58;;;16.20;99.90;;;;;;7387160;19;20464;-75
2023/03/19 09:55:47;;;;;;;2.30;1.63;;;16.30;99.90;;;;;;7389641;19;20514;-75
2023/03/19 09:58:20;;;;;;;1.98;1.50;;;16.50;99.90;;;;;;7389540;19;20154;-76
2023/03/19 10:00:51;;;;;;;2.10;1.45;;;16.60;99.90;;;;;;7387488;19;20134;-76
2023/03/19 10:04:03;;;;;;;2.13;1.30;;;16.70;99.90;;;;;;7388342;19;20536;-75
2023/03/19 10:06:36;;;;;;;1.88;1.60;;;16.70;99.90;;;;;;7386806;19;20587;-75
2023/03/19 10:09:33;;;;;;;2.58;1.40;;;16.60;99.90;;;;;;7388239;19;20616;-75
2023/03/19 10:12:28;;;;;;;2.58;1.50;;;16.70;99.90;;;;;;7387589;19;20206;-75
2023/03/19 10:15:03;;;;;;;2.33;1.50;;;16.80;99.90;;;;;;7386496;19;20627;-76
2023/03/19 10:18:06;;;;;;;1.95;1.70;;;17.00;99.90;;;;;;7387652;19;21088;-76
2023/03/19 10:20:40;;;;;;;2.17;1.27;;;16.90;99.90;;;;;;7386419;19;20254;-75
2023/03/19 10:23:31;;;;;;;5.57;1.58;;;16.90;99.90;;;;;;7387863;19;20667;-76
2023/03/19 10:25:59;;;;;;;2.10;1.35;;;16.90;99.90;;;;;;7385866;19;20135;-75
2023/03/19 10:28:27;;;;;;;2.17;1.45;;;17.10;99.90;;;;;;7385376;19;20482;-76
2023/03/19 10:31:13;;;;;;;1.48;1.10;;;17.10;99.90;;;;;;7385825;19;20588;-75
2023/03/19 10:34:09;;;;;;;1.42;1.10;;;17.20;99.90;;;;;;7386450;19;20138;-73
2023/03/19 10:36:36;;;;;;;2.67;1.27;;;17.40;99.90;;;;;;7384646;19;20129;-73
2023/03/19 10:39:05;;;;;;;2.55;1.30;;;17.30;99.90;;;;;;7383665;19;20142;-72
2023/03/19 10:41:55;;;;;;;2.10;1.10;;;17.40;99.90;;;;;;7386272;19;20226;-72
2023/03/19 10:44:44;;;;;;;2.25;1.17;;;17.40;99.90;;;;;;7385115;19;20146;-73
2023/03/19 10:47:13;;;;;;;4.00;1.30;;;17.40;99.90;;;;;;7384089;19;20602;-74
2023/03/19 10:49:39;;;;;;;2.65;1.30;;;17.40;99.90;;;;;;7382632;19;20131;-73
2023/03/19 10:52:16;;;;;;;2.63;1.08;;;17.60;99.90;;;;;;7385692;19;20123;-73
2023/03/19 10:54:44;;;;;;;3.08;0.95;;;17.60;99.90;;;;;;7388301;19;20340;-74
2023/03/19 10:57:26;;;;;;;3.53;1.40;;;17.80;99.90;;;;;;7388804;19;20154;-74
2023/03/19 10:59:52;;;;;;;2.60;1.10;;;18.10;99.90;;;;;;7388739;19;20481;-75
2023/03/19 11:02:29;;;;;;;1.48;1.20;;;18.10;99.90;;;;;;7386545;19;20158;-74
2023/03/19 11:05:12;;;;;;;2.53;1.30;;;18.10;99.90;;;;;;7385752;19;20158;-74
2023/03/19 11:07:39;;;;;;;1.67;1.20;;;18.00;99.90;;;;;;7386511;19;20131;-74
2023/03/19 11:10:13;;;;;;;2.75;1.35;;;18.10;99.90;;;;;;7385449;19;20477;-74
2023/03/19 11:12:39;;;;;;;1.60;1.17;;;18.20;99.90;;;;;;7384302;19;20137;-75
2023/03/19 11:15:19;;;;;;;2.75;1.08;;;18.30;99.90;;;;;;7384661;19;20449;-76
2023/03/19 11:17:47;;;;;;;1.48;1.20;;;18.10;99.90;;;;;;7384666;19;20151;-74
2023/03/19 11:20:31;;;;;;;1.95;1.30;;;18.30;99.90;;;;;;7384916;19;20134;-74
2023/03/19 11:23:01;;;;;;;4.10;1.50;;;18.10;99.90;;;;;;7386213;19;20131;-76
2023/03/19 11:25:32;;;;;;;1.50;0.90;;;17.90;99.90;;;;;;7386606;19;20666;-75
2023/03/19 11:28:08;;;;;;;1.42;1.10;;;17.80;99.90;;;;;;7385709;19;20145;-75
2023/03/19 11:30:57;;;;;;;2.25;1.05;;;18.00;99.90;;;;;;7387702;19;20587;-75
2023/03/19 11:33:40;;;;;;;3.22;1.50;;;18.00;99.90;;;;;;7386474;19;20488;-74
2023/03/19 11:36:28;;;;;;;3.53;1.40;;;17.90;99.90;;;;;;7385889;19;20560;-74
2023/03/19 11:39:03;;;;;;;3.50;1.20;;;18.10;99.90;;;;;;7388807;19;20154;-73
2023/03/19 11:42:09;;;;;;;3.47;1.17;;;17.90;99.90;;;;;;7386923;19;20126;-75
2023/03/19 11:44:59;;;;;;;1.73;1.17;;;18.10;99.90;;;;;;7382403;19;20152;-75
2023/03/19 11:47:39;;;;;;;1.00;0.90;;;18.50;99.90;;;;;;7385566;19;21015;-78
2023/03/19 11:50:18;;;;;;;2.13;0.98;;;18.40;99.90;;;;;;7383924;19;20139;-76
2023/03/19 11:53:13;;;;;;;4.40;1.23;;;18.40;99.90;;;;;;7381423;19;20142;-77
2023/03/19 11:56:00;;;;;;;1.40;1.00;;;18.50;99.90;;;;;;7385135;19;20138;-76
2023/03/19 11:58:48;;;;;;;2.83;1.20;;;18.40;99.90;;;;;;7385493;19;20210;-76
2023/03/19 12:01:45;;;;;;;1.38;1.10;;;18.30;99.90;;;;;;7389047;19;20146;-77
2023/03/19 12:04:20;;;;;;;1.60;1.17;;;18.30;99.90;;;;;;7388982;19;20178;-76
2023/03/19 12:06:51;;;;;;;1.70;1.17;;;18.30;99.90;;;;;;7392557;19;20134;-77
2023/03/19 12:09:36;;;;;;;2.72;1.10;;;18.20;99.90;;;;;;7394310;19;20202;-76
2023/03/19 12:12:13;;;;;;;2.45;1.23;;;18.40;99.90;;;;;;7393958;19;20150;-78
2023/03/19 12:14:54;;;;;;;1.17;1.00;;;18.50;99.90;;;;;;7387868;19;20146;-76
2023/03/19 12:17:46;;;;;;;2.30;1.20;;;18.60;99.90;;;;;;7391269;19;20158;-74
2023/03/19 12:20:21;;;;;;;3.05;1.40;;;18.90;99.90;;;;;;7389607;19;20154;-76
2023/03/19 12:22:53;;;;;;;1.60;1.10;;;18.70;99.90;;;;;;7385698;19;20134;-75
2023/03/19 12:25:22;;;;;;;4.03;1.45;;;18.30;99.90;;;;;;7393702;19;20223;-75
2023/03/19 12:28:15;;;;;;;2.00;1.20;;;18.30;99.90;;;;;;7392332;19;20154;-75
2023/03/19 12:31:05;;;;;;;2.78;1.45;;;18.20;99.90;;;;;;7392784;19;20138;-74
2023/03/19 12:34:10;;;;;;;5.45;1.00;;;18.30;99.90;;;;;;7392718;19;20551;-76
2023/03/19 12:36:53;;;;;;;1.40;1.20;;;18.40;99.90;;;;;;7389928;19;20576;-76
2023/03/19 12:39:24;;;;;;;2.85;1.40;;;18.70;99.90;;;;;;7393754;19;20671;-75
2023/03/19 12:41:52;;;;;;;3.58;1.42;;;18.80;99.90;;;;;;7394070;19;20615;-76
2023/03/19 12:44:37;;;;;;;2.22;1.10;;;18.70;99.90;;;;;;7393132;19;20504;-76
2023/03/19 12:47:12;;;;;;;2.25;1.60;;;18.50;99.90;;;;;;7392422;19;20127;-76
2023/03/19 12:49:53;;;;;;;3.50;1.20;;;18.40;99.90;;;;;;7391794;19;20163;-76
2023/03/19 12:52:25;;;;;;;1.42;1.20;;;18.50;99.90;;;;;;7389849;19;20176;-75
2023/03/19 12:55:11;;;;;;;4.88;2.17;;;18.40;99.90;;;;;;7385633;19;20135;-75
2023/03/19 12:57:45;;;;;;;3.90;1.48;;;18.30;99.90;;;;;;7386923;19;20174;-73
2023/03/19 13:00:25;;;;;;;3.22;1.50;;;18.30;99.90;;;;;;7388412;19;20603;-74